NOZ8NE ENGM-EGPH
Flight info
| Callsign | NOZ8NE |
|---|---|
| Flight time | 1h 36m |
| Altitude | 36000 |
| Route | ATLAP DCT IPMOD DCT KLONN DCT ADN DCT NAXIL/N0407F240 P600 PTH |
| Aircraft | A320/M-SDE3FGHIRWY/LB1 |
Departure
| Time | 2026-05-06 10:05 |
|---|---|
| Airport | Oslo-Gardermoen International Airport (ENGM) |
Arrival
| Time | 2026-05-06 11:41 |
|---|---|
| Airport | Edinburgh Airport (EGPH) |
| Time | Latitude | Longitude | Altitude | Speed | Heading |
|---|---|---|---|---|---|
| 2026-05-06 09:32 | 60.19388 | 11.10645 | 683 ft | 0 kts | 196° |
| 2026-05-06 09:54 | 60.19393 | 11.10648 | 679 ft | 4 kts | 196° |
| 2026-05-06 09:54 | 60.19419 | 11.10663 | 685 ft | 4 kts | 196° |
| 2026-05-06 09:55 | 60.19445 | 11.10678 | 685 ft | 4 kts | 196° |
| 2026-05-06 09:55 | 60.19466 | 11.10689 | 683 ft | 4 kts | 198° |
| 2026-05-06 09:55 | 60.19486 | 11.10714 | 680 ft | 4 kts | 247° |
| 2026-05-06 09:55 | 60.19487 | 11.10758 | 681 ft | 4 kts | 286° |
| 2026-05-06 09:56 | 60.19479 | 11.10810 | 683 ft | 4 kts | 286° |
| 2026-05-06 09:56 | 60.19472 | 11.10862 | 682 ft | 4 kts | 286° |
| 2026-05-06 09:56 | 60.19464 | 11.10915 | 680 ft | 4 kts | 286° |
| 2026-05-06 09:56 | 60.19459 | 11.10955 | 680 ft | 0 kts | 286° |
| 2026-05-06 09:58 | 60.19459 | 11.10954 | 680 ft | 1 kts | 286° |
| 2026-05-06 09:58 | 60.19462 | 11.10932 | 678 ft | 3 kts | 286° |
| 2026-05-06 09:58 | 60.19473 | 11.10857 | 681 ft | 8 kts | 286° |
| 2026-05-06 09:59 | 60.19490 | 11.10740 | 679 ft | 10 kts | 286° |
| 2026-05-06 09:59 | 60.19511 | 11.10593 | 680 ft | 12 kts | 287° |
| 2026-05-06 09:59 | 60.19589 | 11.10554 | 683 ft | 14 kts | 15° |
| 2026-05-06 09:59 | 60.19689 | 11.10612 | 683 ft | 16 kts | 16° |
| 2026-05-06 10:00 | 60.19806 | 11.10680 | 682 ft | 19 kts | 16° |
| 2026-05-06 10:00 | 60.19930 | 11.10708 | 679 ft | 17 kts | 311° |
| 2026-05-06 10:00 | 60.19979 | 11.10487 | 684 ft | 18 kts | 285° |
| 2026-05-06 10:00 | 60.20017 | 11.10228 | 682 ft | 20 kts | 287° |
| 2026-05-06 10:01 | 60.20057 | 11.09942 | 679 ft | 23 kts | 286° |
| 2026-05-06 10:01 | 60.20103 | 11.09618 | 681 ft | 25 kts | 286° |
| 2026-05-06 10:01 | 60.20154 | 11.09257 | 680 ft | 28 kts | 286° |
| 2026-05-06 10:01 | 60.20197 | 11.08970 | 680 ft | 14 kts | 290° |
| 2026-05-06 10:02 | 60.20245 | 11.08796 | 681 ft | 16 kts | 337° |
| 2026-05-06 10:02 | 60.20355 | 11.08839 | 681 ft | 17 kts | 16° |
| 2026-05-06 10:02 | 60.20477 | 11.08910 | 681 ft | 19 kts | 16° |
| 2026-05-06 10:02 | 60.20596 | 11.08977 | 682 ft | 8 kts | 15° |
| 2026-05-06 10:03 | 60.20654 | 11.08963 | 680 ft | 11 kts | 323° |
| 2026-05-06 10:03 | 60.20684 | 11.08798 | 679 ft | 14 kts | 285° |
| 2026-05-06 10:03 | 60.20668 | 11.08636 | 679 ft | 13 kts | 211° |
| 2026-05-06 10:03 | 60.20574 | 11.08569 | 678 ft | 16 kts | 196° |
| 2026-05-06 10:04 | 60.20415 | 11.08481 | 678 ft | 48 kts | 196° |
| 2026-05-06 10:04 | 60.19891 | 11.08175 | 673 ft | 107 kts | 195° |
| 2026-05-06 10:04 | 60.19035 | 11.07668 | 687 ft | 146 kts | 198° |
| 2026-05-06 10:04 | 60.18063 | 11.07035 | 1155 ft | 147 kts | 199° |
| 2026-05-06 10:05 | 60.17100 | 11.06349 | 1736 ft | 147 kts | 208° |
| 2026-05-06 10:05 | 60.16294 | 11.05015 | 2107 ft | 160 kts | 233° |
| 2026-05-06 10:05 | 60.15761 | 11.02888 | 2388 ft | 182 kts | 247° |
| 2026-05-06 10:05 | 60.15232 | 11.00399 | 2655 ft | 206 kts | 246° |
| 2026-05-06 10:06 | 60.14626 | 10.97596 | 2984 ft | 231 kts | 246° |
| 2026-05-06 10:06 | 60.14098 | 10.94409 | 3532 ft | 250 kts | 263° |
| 2026-05-06 10:06 | 60.13975 | 10.90883 | 4418 ft | 255 kts | 266° |
| 2026-05-06 10:06 | 60.13863 | 10.87297 | 5354 ft | 258 kts | 266° |
| 2026-05-06 10:07 | 60.13787 | 10.84903 | 6012 ft | 260 kts | 266° |
| 2026-05-06 10:07 | 60.13629 | 10.80089 | 7247 ft | 263 kts | 265° |
| 2026-05-06 10:07 | 60.13504 | 10.76421 | 8167 ft | 264 kts | 265° |
| 2026-05-06 10:07 | 60.13378 | 10.72739 | 9072 ft | 266 kts | 265° |
| 2026-05-06 10:08 | 60.13290 | 10.69028 | 9952 ft | 268 kts | 272° |
| 2026-05-06 10:08 | 60.13502 | 10.66514 | 10452 ft | 272 kts | 286° |
| 2026-05-06 10:08 | 60.14366 | 10.63131 | 11229 ft | 279 kts | 304° |
| 2026-05-06 10:08 | 60.15840 | 10.60427 | 11443 ft | 307 kts | 326° |
| 2026-05-06 10:09 | 60.17816 | 10.58377 | 11658 ft | 329 kts | 329° |
| 2026-05-06 10:09 | 60.19884 | 10.56295 | 12235 ft | 335 kts | 328° |
| 2026-05-06 10:09 | 60.21812 | 10.53707 | 12945 ft | 331 kts | 315° |
| 2026-05-06 10:09 | 60.23385 | 10.50376 | 13735 ft | 327 kts | 303° |
| 2026-05-06 10:10 | 60.24544 | 10.46480 | 14430 ft | 323 kts | 291° |
| 2026-05-06 10:10 | 60.25277 | 10.42219 | 15098 ft | 322 kts | 283° |
| 2026-05-06 10:10 | 60.25890 | 10.37872 | 15728 ft | 323 kts | 283° |
| 2026-05-06 10:10 | 60.26510 | 10.33503 | 16307 ft | 326 kts | 283° |
| 2026-05-06 10:11 | 60.27134 | 10.29108 | 16949 ft | 327 kts | 283° |
| 2026-05-06 10:11 | 60.27762 | 10.24703 | 17590 ft | 328 kts | 283° |
| 2026-05-06 10:11 | 60.28352 | 10.20238 | 18210 ft | 329 kts | 277° |
| 2026-05-06 10:11 | 60.28487 | 10.15658 | 18755 ft | 328 kts | 265° |
| 2026-05-06 10:12 | 60.28055 | 10.11132 | 19277 ft | 331 kts | 252° |
| 2026-05-06 10:12 | 60.27064 | 10.06939 | 19883 ft | 335 kts | 240° |
| 2026-05-06 10:12 | 60.25570 | 10.03279 | 20478 ft | 340 kts | 231° |
| 2026-05-06 10:12 | 60.23932 | 9.99815 | 21055 ft | 341 kts | 231° |
| 2026-05-06 10:13 | 60.22296 | 9.96352 | 21584 ft | 342 kts | 231° |
| 2026-05-06 10:13 | 60.20654 | 9.92870 | 22079 ft | 344 kts | 231° |
| 2026-05-06 10:13 | 60.19019 | 9.89414 | 22554 ft | 346 kts | 231° |
| 2026-05-06 10:13 | 60.17361 | 9.85909 | 23084 ft | 347 kts | 231° |
| 2026-05-06 10:14 | 60.15694 | 9.82368 | 23582 ft | 348 kts | 232° |
| 2026-05-06 10:14 | 60.14240 | 9.78517 | 23992 ft | 346 kts | 241° |
| 2026-05-06 10:14 | 60.13094 | 9.74259 | 24394 ft | 346 kts | 244° |
| 2026-05-06 10:14 | 60.11970 | 9.69958 | 24770 ft | 348 kts | 244° |
| 2026-05-06 10:15 | 60.10837 | 9.65647 | 25087 ft | 350 kts | 244° |
| 2026-05-06 10:15 | 60.09698 | 9.61326 | 25396 ft | 354 kts | 244° |
| 2026-05-06 10:15 | 60.08541 | 9.56937 | 25707 ft | 356 kts | 243° |
| 2026-05-06 10:15 | 60.07391 | 9.52585 | 26094 ft | 359 kts | 243° |
| 2026-05-06 10:16 | 60.06220 | 9.48169 | 26470 ft | 360 kts | 243° |
| 2026-05-06 10:16 | 60.05038 | 9.43726 | 26811 ft | 362 kts | 243° |
| 2026-05-06 10:16 | 60.03852 | 9.39269 | 27171 ft | 364 kts | 243° |
| 2026-05-06 10:16 | 60.02658 | 9.34784 | 27516 ft | 366 kts | 243° |
| 2026-05-06 10:17 | 60.01457 | 9.30282 | 27913 ft | 368 kts | 243° |
| 2026-05-06 10:17 | 60.00248 | 9.25771 | 28305 ft | 369 kts | 243° |
| 2026-05-06 10:17 | 59.99029 | 9.21234 | 28599 ft | 371 kts | 242° |
| 2026-05-06 10:17 | 59.97808 | 9.16688 | 29158 ft | 369 kts | 242° |
| 2026-05-06 10:18 | 59.96601 | 9.12197 | 29739 ft | 366 kts | 242° |
| 2026-05-06 10:18 | 59.95396 | 9.07723 | 30242 ft | 364 kts | 242° |
| 2026-05-06 10:18 | 59.94196 | 9.03276 | 30664 ft | 364 kts | 242° |
| 2026-05-06 10:18 | 59.92996 | 8.98844 | 31075 ft | 364 kts | 242° |
| 2026-05-06 10:19 | 59.91790 | 8.94403 | 31462 ft | 364 kts | 242° |
| 2026-05-06 10:19 | 59.90579 | 8.89962 | 31851 ft | 365 kts | 242° |
| 2026-05-06 10:19 | 59.89368 | 8.85524 | 32191 ft | 366 kts | 242° |
| 2026-05-06 10:19 | 59.88149 | 8.81066 | 32596 ft | 365 kts | 242° |
| 2026-05-06 10:20 | 59.86936 | 8.76628 | 32952 ft | 366 kts | 242° |
| 2026-05-06 10:20 | 59.85734 | 8.72237 | 33333 ft | 366 kts | 242° |
| 2026-05-06 10:20 | 59.84516 | 8.67798 | 33758 ft | 366 kts | 242° |
| 2026-05-06 10:20 | 59.83297 | 8.63361 | 34122 ft | 366 kts | 242° |
| 2026-05-06 10:21 | 59.82073 | 8.58913 | 34416 ft | 367 kts | 242° |
| 2026-05-06 10:21 | 59.80846 | 8.54462 | 34651 ft | 369 kts | 242° |
| 2026-05-06 10:21 | 59.79600 | 8.49963 | 34847 ft | 372 kts | 242° |
| 2026-05-06 10:21 | 59.78346 | 8.45444 | 35046 ft | 374 kts | 242° |
| 2026-05-06 10:22 | 59.77088 | 8.40922 | 35288 ft | 376 kts | 242° |
| 2026-05-06 10:22 | 59.75821 | 8.36375 | 35518 ft | 378 kts | 242° |
| 2026-05-06 10:22 | 59.74542 | 8.31799 | 35750 ft | 379 kts | 242° |
| 2026-05-06 10:22 | 59.73382 | 8.27103 | 35951 ft | 381 kts | 247° |
| 2026-05-06 10:23 | 59.71266 | 8.17330 | 36019 ft | 391 kts | 247° |
| 2026-05-06 10:23 | 59.69112 | 8.07457 | 36027 ft | 393 kts | 247° |
| 2026-05-06 10:24 | 59.66932 | 7.97518 | 36027 ft | 394 kts | 246° |
| 2026-05-06 10:24 | 59.64744 | 7.87592 | 35984 ft | 394 kts | 246° |
| 2026-05-06 10:25 | 59.62544 | 7.77649 | 36063 ft | 395 kts | 246° |
| 2026-05-06 10:25 | 59.60324 | 7.67741 | 36050 ft | 395 kts | 246° |
| 2026-05-06 10:26 | 59.58118 | 7.57882 | 36050 ft | 395 kts | 246° |
| 2026-05-06 10:26 | 59.55888 | 7.47970 | 36069 ft | 395 kts | 246° |
| 2026-05-06 10:27 | 59.53647 | 7.38047 | 36070 ft | 395 kts | 246° |
| 2026-05-06 10:27 | 59.51403 | 7.28141 | 36069 ft | 395 kts | 246° |
| 2026-05-06 10:28 | 59.49150 | 7.18256 | 36072 ft | 396 kts | 246° |
| 2026-05-06 10:28 | 59.46884 | 7.08387 | 36076 ft | 396 kts | 246° |
| 2026-05-06 10:29 | 59.44610 | 6.98524 | 36061 ft | 396 kts | 246° |
| 2026-05-06 10:29 | 59.42343 | 6.88727 | 36061 ft | 397 kts | 246° |
| 2026-05-06 10:30 | 59.40052 | 6.78858 | 36039 ft | 397 kts | 245° |
| 2026-05-06 10:30 | 59.37759 | 6.69015 | 36032 ft | 397 kts | 245° |
| 2026-05-06 10:31 | 59.35451 | 6.59176 | 36033 ft | 397 kts | 245° |
| 2026-05-06 10:31 | 59.33136 | 6.49339 | 36040 ft | 397 kts | 245° |
| 2026-05-06 10:32 | 59.30817 | 6.39521 | 36050 ft | 397 kts | 245° |
| 2026-05-06 10:32 | 59.28479 | 6.29702 | 36050 ft | 398 kts | 245° |
| 2026-05-06 10:33 | 59.26135 | 6.19886 | 36050 ft | 398 kts | 245° |
| 2026-05-06 10:33 | 59.23800 | 6.10148 | 36049 ft | 398 kts | 245° |
| 2026-05-06 10:34 | 59.21434 | 6.00345 | 36053 ft | 398 kts | 245° |
| 2026-05-06 10:34 | 59.19066 | 5.90572 | 36051 ft | 398 kts | 245° |
| 2026-05-06 10:35 | 59.16691 | 5.80812 | 36022 ft | 398 kts | 245° |
| 2026-05-06 10:35 | 59.14318 | 5.71065 | 36034 ft | 398 kts | 245° |
| 2026-05-06 10:36 | 59.11930 | 5.61309 | 36054 ft | 399 kts | 244° |
| 2026-05-06 10:36 | 59.09531 | 5.51583 | 36069 ft | 399 kts | 244° |
| 2026-05-06 10:37 | 59.07121 | 5.41862 | 36072 ft | 399 kts | 244° |
| 2026-05-06 10:37 | 59.04710 | 5.32149 | 36077 ft | 399 kts | 244° |
| 2026-05-06 10:38 | 59.02308 | 5.22520 | 36078 ft | 398 kts | 244° |
| 2026-05-06 10:38 | 58.99884 | 5.12858 | 36078 ft | 398 kts | 244° |
| 2026-05-06 10:39 | 58.97838 | 5.04745 | 36098 ft | 399 kts | 244° |
| 2026-05-06 10:39 | 58.95400 | 4.95105 | 36091 ft | 399 kts | 244° |
| 2026-05-06 10:40 | 58.92952 | 4.85448 | 36039 ft | 399 kts | 244° |
| 2026-05-06 10:40 | 58.90494 | 4.75795 | 36051 ft | 400 kts | 244° |
| 2026-05-06 10:41 | 58.88020 | 4.66140 | 36070 ft | 401 kts | 244° |
| 2026-05-06 10:41 | 58.85531 | 4.56473 | 36073 ft | 401 kts | 244° |
| 2026-05-06 10:42 | 58.83038 | 4.46839 | 36078 ft | 401 kts | 244° |
| 2026-05-06 10:42 | 58.80556 | 4.37270 | 36101 ft | 402 kts | 244° |
| 2026-05-06 10:43 | 58.78033 | 4.27580 | 36098 ft | 402 kts | 244° |
| 2026-05-06 10:44 | 58.74273 | 4.13232 | 36083 ft | 401 kts | 244° |
| 2026-05-06 10:44 | 58.71751 | 4.03628 | 36079 ft | 402 kts | 244° |
| 2026-05-06 10:45 | 58.69214 | 3.94042 | 36086 ft | 402 kts | 243° |
| 2026-05-06 10:45 | 58.66669 | 3.84486 | 36081 ft | 402 kts | 243° |
| 2026-05-06 10:46 | 58.64116 | 3.74906 | 36101 ft | 402 kts | 243° |
| 2026-05-06 10:46 | 58.61577 | 3.65394 | 36090 ft | 403 kts | 243° |
| 2026-05-06 10:47 | 58.59003 | 3.55837 | 36090 ft | 403 kts | 243° |
| 2026-05-06 10:47 | 58.56419 | 3.46289 | 36089 ft | 404 kts | 243° |
| 2026-05-06 10:48 | 58.53828 | 3.36737 | 36094 ft | 404 kts | 243° |
| 2026-05-06 10:48 | 58.51235 | 3.27201 | 36093 ft | 404 kts | 243° |
| 2026-05-06 10:49 | 58.48624 | 3.17659 | 36100 ft | 405 kts | 243° |
| 2026-05-06 10:49 | 58.46009 | 3.08134 | 36106 ft | 405 kts | 243° |
| 2026-05-06 10:50 | 58.43380 | 2.98615 | 36069 ft | 405 kts | 243° |
| 2026-05-06 10:50 | 58.40757 | 2.89179 | 36070 ft | 405 kts | 243° |
| 2026-05-06 10:51 | 58.38368 | 2.79452 | 36073 ft | 405 kts | 250° |
| 2026-05-06 10:51 | 58.36481 | 2.69299 | 36093 ft | 406 kts | 250° |
| 2026-05-06 10:52 | 58.34579 | 2.59161 | 36095 ft | 406 kts | 250° |
| 2026-05-06 10:52 | 58.32664 | 2.49059 | 36096 ft | 406 kts | 250° |
| 2026-05-06 10:53 | 58.30746 | 2.38963 | 36100 ft | 406 kts | 250° |
| 2026-05-06 10:53 | 58.28824 | 2.28868 | 36089 ft | 406 kts | 250° |
| 2026-05-06 10:54 | 58.27219 | 2.20474 | 36095 ft | 406 kts | 250° |
| 2026-05-06 10:54 | 58.25280 | 2.10396 | 36095 ft | 407 kts | 250° |
| 2026-05-06 10:55 | 58.23324 | 2.00302 | 36098 ft | 407 kts | 250° |
| 2026-05-06 10:55 | 58.21362 | 1.90228 | 36093 ft | 407 kts | 250° |
| 2026-05-06 10:56 | 58.19403 | 1.80229 | 36097 ft | 407 kts | 250° |
| 2026-05-06 10:56 | 58.17425 | 1.70187 | 36070 ft | 407 kts | 250° |
| 2026-05-06 10:57 | 58.15435 | 1.60120 | 36075 ft | 408 kts | 250° |
| 2026-05-06 10:57 | 58.13431 | 1.50058 | 36085 ft | 408 kts | 250° |
| 2026-05-06 10:58 | 58.11424 | 1.40002 | 36090 ft | 409 kts | 250° |
| 2026-05-06 10:58 | 58.09415 | 1.29937 | 36095 ft | 409 kts | 250° |
| 2026-05-06 10:59 | 58.07401 | 1.19948 | 36111 ft | 409 kts | 250° |
| 2026-05-06 10:59 | 58.05361 | 1.09893 | 36110 ft | 410 kts | 250° |
| 2026-05-06 11:00 | 58.03319 | 0.99846 | 36110 ft | 410 kts | 250° |
| 2026-05-06 11:00 | 58.01260 | 0.89808 | 36118 ft | 410 kts | 249° |
| 2026-05-06 11:01 | 57.99190 | 0.79771 | 36119 ft | 410 kts | 249° |
| 2026-05-06 11:01 | 57.97124 | 0.69767 | 36117 ft | 410 kts | 249° |
| 2026-05-06 11:02 | 57.95049 | 0.59764 | 36119 ft | 410 kts | 249° |
| 2026-05-06 11:02 | 57.92979 | 0.49834 | 36115 ft | 410 kts | 249° |
| 2026-05-06 11:03 | 57.90880 | 0.39866 | 36087 ft | 410 kts | 249° |
| 2026-05-06 11:03 | 57.88770 | 0.29872 | 36091 ft | 411 kts | 249° |
| 2026-05-06 11:04 | 57.86657 | 0.19884 | 36099 ft | 412 kts | 249° |
| 2026-05-06 11:04 | 57.84527 | 0.09893 | 36106 ft | 412 kts | 249° |
| 2026-05-06 11:05 | 57.82394 | -0.00086 | 36118 ft | 412 kts | 249° |
| 2026-05-06 11:05 | 57.80256 | -0.10047 | 36112 ft | 412 kts | 249° |
| 2026-05-06 11:06 | 57.78098 | -0.20012 | 36113 ft | 412 kts | 249° |
| 2026-05-06 11:06 | 57.75949 | -0.29907 | 36115 ft | 413 kts | 249° |
| 2026-05-06 11:07 | 57.73779 | -0.39861 | 36119 ft | 413 kts | 249° |
| 2026-05-06 11:07 | 57.71598 | -0.49789 | 36116 ft | 413 kts | 249° |
| 2026-05-06 11:08 | 57.69414 | -0.59711 | 36120 ft | 412 kts | 249° |
| 2026-05-06 11:08 | 57.67219 | -0.69623 | 36118 ft | 413 kts | 249° |
| 2026-05-06 11:09 | 57.65010 | -0.79526 | 36102 ft | 413 kts | 249° |
| 2026-05-06 11:09 | 57.62805 | -0.89426 | 36093 ft | 413 kts | 248° |
| 2026-05-06 11:10 | 57.60583 | -0.99343 | 36097 ft | 414 kts | 248° |
| 2026-05-06 11:10 | 57.58344 | -1.09249 | 36107 ft | 415 kts | 248° |
| 2026-05-06 11:11 | 57.56098 | -1.19148 | 36114 ft | 415 kts | 248° |
| 2026-05-06 11:11 | 57.53853 | -1.29052 | 36113 ft | 415 kts | 248° |
| 2026-05-06 11:12 | 57.51592 | -1.38948 | 36115 ft | 415 kts | 248° |
| 2026-05-06 11:12 | 57.49341 | -1.48726 | 36115 ft | 415 kts | 248° |
| 2026-05-06 11:13 | 57.47067 | -1.58620 | 36114 ft | 415 kts | 248° |
| 2026-05-06 11:13 | 57.44781 | -1.68469 | 36113 ft | 415 kts | 248° |
| 2026-05-06 11:14 | 57.42486 | -1.78296 | 36112 ft | 415 kts | 248° |
| 2026-05-06 11:14 | 57.40189 | -1.88114 | 36102 ft | 415 kts | 248° |
| 2026-05-06 11:15 | 57.37888 | -1.97917 | 36094 ft | 415 kts | 248° |
| 2026-05-06 11:15 | 57.35575 | -2.07717 | 36065 ft | 415 kts | 248° |
| 2026-05-06 11:16 | 57.33246 | -2.17496 | 36067 ft | 416 kts | 248° |
| 2026-05-06 11:16 | 57.30269 | -2.26638 | 36070 ft | 421 kts | 231° |
| 2026-05-06 11:17 | 57.25767 | -2.33631 | 36073 ft | 427 kts | 219° |
| 2026-05-06 11:17 | 57.20945 | -2.39899 | 36058 ft | 426 kts | 219° |
| 2026-05-06 11:17 | 57.18503 | -2.43053 | 35191 ft | 433 kts | 219° |
| 2026-05-06 11:18 | 57.16017 | -2.46267 | 34280 ft | 440 kts | 219° |
| 2026-05-06 11:18 | 57.13501 | -2.49515 | 33455 ft | 441 kts | 219° |
| 2026-05-06 11:18 | 57.10981 | -2.52764 | 32562 ft | 443 kts | 219° |
| 2026-05-06 11:18 | 57.08441 | -2.56037 | 31621 ft | 446 kts | 219° |
| 2026-05-06 11:19 | 57.05892 | -2.59316 | 30679 ft | 449 kts | 218° |
| 2026-05-06 11:19 | 57.03324 | -2.62611 | 29636 ft | 452 kts | 218° |
| 2026-05-06 11:19 | 57.00748 | -2.65904 | 28739 ft | 450 kts | 218° |
| 2026-05-06 11:19 | 56.98179 | -2.69181 | 27847 ft | 448 kts | 218° |
| 2026-05-06 11:20 | 56.95624 | -2.72431 | 27078 ft | 444 kts | 218° |
| 2026-05-06 11:20 | 56.93131 | -2.75599 | 26351 ft | 439 kts | 218° |
| 2026-05-06 11:20 | 56.90632 | -2.78768 | 25588 ft | 435 kts | 218° |
| 2026-05-06 11:20 | 56.88169 | -2.81889 | 24930 ft | 428 kts | 218° |
| 2026-05-06 11:21 | 56.85732 | -2.84975 | 24261 ft | 424 kts | 218° |
| 2026-05-06 11:21 | 56.83319 | -2.88026 | 23643 ft | 418 kts | 218° |
| 2026-05-06 11:21 | 56.80946 | -2.91031 | 22961 ft | 412 kts | 218° |
| 2026-05-06 11:21 | 56.78613 | -2.93983 | 22381 ft | 404 kts | 218° |
| 2026-05-06 11:22 | 56.76320 | -2.96881 | 21816 ft | 397 kts | 218° |
| 2026-05-06 11:22 | 56.74071 | -2.99712 | 21281 ft | 390 kts | 218° |
| 2026-05-06 11:22 | 56.71846 | -3.02494 | 20755 ft | 385 kts | 218° |
| 2026-05-06 11:22 | 56.69653 | -3.05235 | 20252 ft | 380 kts | 218° |
| 2026-05-06 11:23 | 56.67512 | -3.07912 | 19766 ft | 376 kts | 218° |
| 2026-05-06 11:23 | 56.65372 | -3.10592 | 19264 ft | 372 kts | 218° |
| 2026-05-06 11:23 | 56.63252 | -3.13252 | 18769 ft | 368 kts | 218° |
| 2026-05-06 11:23 | 56.61154 | -3.15881 | 18238 ft | 365 kts | 218° |
| 2026-05-06 11:24 | 56.59073 | -3.18482 | 17692 ft | 361 kts | 217° |
| 2026-05-06 11:24 | 56.57012 | -3.21050 | 17177 ft | 356 kts | 217° |
| 2026-05-06 11:24 | 56.54982 | -3.23574 | 16653 ft | 352 kts | 217° |
| 2026-05-06 11:24 | 56.52970 | -3.26073 | 16108 ft | 349 kts | 217° |
| 2026-05-06 11:25 | 56.50979 | -3.28540 | 15592 ft | 346 kts | 217° |
| 2026-05-06 11:25 | 56.48992 | -3.30997 | 15054 ft | 344 kts | 217° |
| 2026-05-06 11:25 | 56.47022 | -3.33428 | 14519 ft | 342 kts | 217° |
| 2026-05-06 11:25 | 56.45060 | -3.35844 | 13983 ft | 341 kts | 217° |
| 2026-05-06 11:26 | 56.43112 | -3.38258 | 13405 ft | 339 kts | 217° |
| 2026-05-06 11:26 | 56.41192 | -3.40713 | 12866 ft | 336 kts | 218° |
| 2026-05-06 11:26 | 56.39302 | -3.43180 | 12335 ft | 334 kts | 218° |
| 2026-05-06 11:26 | 56.37432 | -3.45638 | 11798 ft | 332 kts | 218° |
| 2026-05-06 11:27 | 56.35591 | -3.48048 | 11275 ft | 330 kts | 217° |
| 2026-05-06 11:27 | 56.33731 | -3.50470 | 10778 ft | 329 kts | 217° |
| 2026-05-06 11:27 | 56.31908 | -3.52825 | 10632 ft | 316 kts | 217° |
| 2026-05-06 11:27 | 56.30146 | -3.55089 | 10502 ft | 305 kts | 217° |
| 2026-05-06 11:28 | 56.28449 | -3.57271 | 10374 ft | 295 kts | 217° |
| 2026-05-06 11:28 | 56.26800 | -3.59392 | 10192 ft | 288 kts | 217° |
| 2026-05-06 11:28 | 56.25194 | -3.61459 | 10104 ft | 283 kts | 217° |
| 2026-05-06 11:28 | 56.23586 | -3.63523 | 10036 ft | 285 kts | 217° |
| 2026-05-06 11:29 | 56.21956 | -3.65614 | 9562 ft | 293 kts | 217° |
| 2026-05-06 11:29 | 56.20317 | -3.67738 | 9305 ft | 287 kts | 220° |
| 2026-05-06 11:29 | 56.18922 | -3.70261 | 8932 ft | 284 kts | 233° |
| 2026-05-06 11:29 | 56.17737 | -3.73081 | 8589 ft | 282 kts | 234° |
| 2026-05-06 11:30 | 56.16555 | -3.75885 | 8255 ft | 280 kts | 234° |
| 2026-05-06 11:30 | 56.15393 | -3.78632 | 8103 ft | 272 kts | 234° |
| 2026-05-06 11:30 | 56.14261 | -3.81327 | 7766 ft | 271 kts | 234° |
| 2026-05-06 11:30 | 56.13132 | -3.84039 | 7423 ft | 271 kts | 234° |
| 2026-05-06 11:31 | 56.12010 | -3.86750 | 7125 ft | 270 kts | 234° |
| 2026-05-06 11:31 | 56.10896 | -3.89437 | 6822 ft | 268 kts | 234° |
| 2026-05-06 11:31 | 56.09785 | -3.92109 | 6525 ft | 266 kts | 234° |
| 2026-05-06 11:31 | 56.08695 | -3.94734 | 6201 ft | 265 kts | 234° |
| 2026-05-06 11:32 | 56.07601 | -3.97387 | 5887 ft | 263 kts | 232° |
| 2026-05-06 11:32 | 56.06236 | -3.99501 | 5594 ft | 260 kts | 205° |
| 2026-05-06 11:32 | 56.04491 | -4.00152 | 5328 ft | 256 kts | 176° |
| 2026-05-06 11:32 | 56.02777 | -3.99339 | 4990 ft | 257 kts | 160° |
| 2026-05-06 11:33 | 56.01113 | -3.98196 | 4672 ft | 255 kts | 159° |
| 2026-05-06 11:33 | 55.99489 | -3.97068 | 4529 ft | 246 kts | 159° |
| 2026-05-06 11:33 | 55.97914 | -3.95974 | 4397 ft | 238 kts | 159° |
| 2026-05-06 11:33 | 55.96421 | -3.94842 | 4262 ft | 229 kts | 149° |
| 2026-05-06 11:34 | 55.95176 | -3.93152 | 4133 ft | 221 kts | 140° |
| 2026-05-06 11:34 | 55.94055 | -3.91405 | 4035 ft | 214 kts | 139° |
| 2026-05-06 11:34 | 55.92938 | -3.89656 | 4001 ft | 213 kts | 139° |
| 2026-05-06 11:34 | 55.91818 | -3.87908 | 4001 ft | 213 kts | 139° |
| 2026-05-06 11:35 | 55.90706 | -3.86164 | 3994 ft | 213 kts | 139° |
| 2026-05-06 11:35 | 55.89592 | -3.84421 | 3996 ft | 213 kts | 139° |
| 2026-05-06 11:35 | 55.88467 | -3.82668 | 3990 ft | 215 kts | 139° |
| 2026-05-06 11:35 | 55.87457 | -3.80757 | 3991 ft | 216 kts | 124° |
| 2026-05-06 11:36 | 55.86774 | -3.78345 | 3990 ft | 216 kts | 112° |
| 2026-05-06 11:36 | 55.86281 | -3.75824 | 3992 ft | 216 kts | 110° |
| 2026-05-06 11:36 | 55.85813 | -3.73286 | 4002 ft | 215 kts | 109° |
| 2026-05-06 11:36 | 55.85357 | -3.70782 | 4003 ft | 216 kts | 109° |
| 2026-05-06 11:37 | 55.85070 | -3.68168 | 3882 ft | 216 kts | 91° |
| 2026-05-06 11:37 | 55.85369 | -3.65564 | 3666 ft | 217 kts | 67° |
| 2026-05-06 11:37 | 55.86125 | -3.63237 | 3388 ft | 217 kts | 60° |
| 2026-05-06 11:37 | 55.86914 | -3.60953 | 3073 ft | 217 kts | 60° |
| 2026-05-06 11:38 | 55.87678 | -3.58731 | 2795 ft | 211 kts | 60° |
| 2026-05-06 11:38 | 55.88439 | -3.56509 | 2502 ft | 201 kts | 60° |
| 2026-05-06 11:38 | 55.89143 | -3.54451 | 2244 ft | 188 kts | 60° |
| 2026-05-06 11:38 | 55.89801 | -3.52526 | 1988 ft | 175 kts | 60° |
| 2026-05-06 11:39 | 55.90404 | -3.50760 | 1747 ft | 160 kts | 60° |
| 2026-05-06 11:39 | 55.90957 | -3.49137 | 1525 ft | 148 kts | 60° |
| 2026-05-06 11:39 | 55.91481 | -3.47598 | 1333 ft | 143 kts | 61° |
| 2026-05-06 11:39 | 55.91988 | -3.46110 | 1129 ft | 141 kts | 60° |
| 2026-05-06 11:40 | 55.92501 | -3.44615 | 956 ft | 141 kts | 60° |
| 2026-05-06 11:40 | 55.93001 | -3.43135 | 742 ft | 138 kts | 59° |
| 2026-05-06 11:40 | 55.93487 | -3.41692 | 519 ft | 136 kts | 59° |
| 2026-05-06 11:40 | 55.93955 | -3.40315 | 329 ft | 135 kts | 58° |
| 2026-05-06 11:41 | 55.94259 | -3.39428 | 223 ft | 134 kts | 57° |
| 2026-05-06 11:41 | 55.94818 | -3.37799 | 116 ft | 124 kts | 53° |
| 2026-05-06 11:41 | 55.95186 | -3.36706 | 114 ft | 73 kts | 59° |
| 2026-05-06 11:41 | 55.95371 | -3.36145 | 110 ft | 43 kts | 59° |
| 2026-05-06 11:42 | 55.95471 | -3.35856 | 111 ft | 33 kts | 58° |
| 2026-05-06 11:42 | 55.95549 | -3.35627 | 113 ft | 21 kts | 59° |
| 2026-05-06 11:42 | 55.95499 | -3.35440 | 113 ft | 11 kts | 147° |
| 2026-05-06 11:42 | 55.95491 | -3.35430 | 114 ft | 1 kts | 147° |
| 2026-05-06 11:43 | 55.95482 | -3.35420 | 113 ft | 3 kts | 149° |
| 2026-05-06 11:43 | 55.95441 | -3.35413 | 114 ft | 10 kts | 201° |
| 2026-05-06 11:43 | 55.95392 | -3.35518 | 115 ft | 13 kts | 237° |
| 2026-05-06 11:44 | 55.95282 | -3.35839 | 115 ft | 18 kts | 239° |
| 2026-05-06 11:44 | 55.95229 | -3.35972 | 115 ft | 12 kts | 206° |
| 2026-05-06 11:44 | 55.95144 | -3.35918 | 115 ft | 15 kts | 141° |
| 2026-05-06 11:44 | 55.95076 | -3.35789 | 116 ft | 15 kts | 171° |
| 2026-05-06 11:45 | 55.95016 | -3.35827 | 112 ft | 0 kts | 208° |
| 2026-05-06 11:45 | 55.95012 | -3.35835 | 114 ft | 2 kts | 224° |
| 2026-05-06 11:45 | 55.95000 | -3.35873 | 115 ft | 5 kts | 248° |
| 2026-05-06 11:45 | 55.94987 | -3.35942 | 116 ft | 6 kts | 251° |
| 2026-05-06 11:46 | 55.94976 | -3.35994 | 114 ft | 4 kts | 250° |
| 2026-05-06 11:46 | 55.94970 | -3.36024 | 116 ft | 0 kts | 251° |